createdAt,value
2019-02-17T00:02:00.993Z,13.43
2019-02-17T00:04:33.190Z,13.40
2019-02-17T00:07:05.408Z,13.10
2019-02-17T00:09:37.812Z,12.83
2019-02-17T00:12:10.005Z,13.90
2019-02-17T00:14:42.241Z,14.13
2019-02-17T00:17:14.657Z,14.00
2019-02-17T00:19:46.880Z,13.90
2019-02-17T00:22:19.277Z,14.57
2019-02-17T00:24:51.644Z,15.30
2019-02-17T00:27:23.933Z,14.33
2019-02-17T00:29:56.283Z,14.63
2019-02-17T00:32:29.030Z,15.27
2019-02-17T00:35:01.286Z,15.13
2019-02-17T00:37:33.631Z,14.07
2019-02-17T00:40:05.860Z,14.80
2019-02-17T00:42:38.256Z,15.53
2019-02-17T00:45:10.993Z,14.40
2019-02-17T00:47:43.297Z,14.77
2019-02-17T00:50:15.521Z,14.43
2019-02-17T00:52:47.724Z,14.93
2019-02-17T00:55:20.208Z,14.37
2019-02-17T00:57:52.433Z,14.30
2019-02-17T01:00:24.860Z,14.93
2019-02-17T01:02:57.168Z,13.53
2019-02-17T01:05:29.599Z,13.93
2019-02-17T01:08:01.771Z,13.60
2019-02-17T01:10:34.016Z,13.10
2019-02-17T01:13:06.364Z,13.73
2019-02-17T01:15:38.591Z,14.17
2019-02-17T01:18:10.763Z,12.63
2019-02-17T01:20:42.984Z,14.37
2019-02-17T01:23:15.322Z,13.30
2019-02-17T01:25:47.551Z,12.63
2019-02-17T01:28:19.761Z,12.03
2019-02-17T01:30:52.240Z,12.77
2019-02-17T01:33:24.569Z,13.30
2019-02-17T01:35:57.058Z,12.83
2019-02-17T01:38:29.324Z,13.37
2019-02-17T01:41:01.954Z,12.90
2019-02-17T01:43:34.239Z,12.47
2019-02-17T01:46:06.778Z,14.20
2019-02-17T01:48:38.982Z,12.40
2019-02-17T01:51:11.543Z,13.17
2019-02-17T01:53:43.847Z,12.70
2019-02-17T01:56:16.009Z,13.80
2019-02-17T01:58:48.172Z,12.53
2019-02-17T02:01:20.417Z,13.07
2019-02-17T02:03:52.508Z,12.23
2019-02-17T02:06:24.944Z,11.93
2019-02-17T02:08:57.284Z,12.17
2019-02-17T02:11:29.717Z,11.43
2019-02-17T02:14:02.005Z,12.13
2019-02-17T02:16:34.515Z,11.90
2019-02-17T02:19:06.710Z,11.17
2019-02-17T02:21:38.937Z,11.87
2019-02-17T02:24:11.264Z,11.50
2019-02-17T02:26:43.770Z,12.80
2019-02-17T02:29:16.213Z,11.60
2019-02-17T02:31:48.453Z,11.13
2019-02-17T02:34:20.750Z,11.43
2019-02-17T02:36:52.856Z,12.27
2019-02-17T02:39:25.580Z,12.00
2019-02-17T02:41:57.963Z,11.57
2019-02-17T02:44:30.341Z,11.37
2019-02-17T02:47:02.853Z,11.53
2019-02-17T02:49:35.054Z,11.70
2019-02-17T02:52:07.663Z,12.17
2019-02-17T02:54:39.845Z,11.73
2019-02-17T02:57:12.536Z,11.17
2019-02-17T02:59:52.182Z,11.17
2019-02-17T03:02:18.877Z,11.97
2019-02-17T03:04:51.058Z,11.57
2019-02-17T03:07:23.641Z,12.13
2019-02-17T03:09:55.921Z,12.80
2019-02-17T03:12:28.255Z,11.73
2019-02-17T03:15:01.024Z,12.37
2019-02-17T03:17:33.380Z,12.27
2019-02-17T03:20:06.224Z,11.87
2019-02-17T03:22:38.510Z,11.70
2019-02-17T03:25:10.846Z,11.60
2019-02-17T03:27:43.284Z,11.93
2019-02-17T03:30:15.663Z,11.80
2019-02-17T03:32:47.824Z,12.03
2019-02-17T03:35:20.085Z,12.30
2019-02-17T03:37:52.401Z,11.80
2019-02-17T03:40:24.709Z,11.50
2019-02-17T03:42:56.982Z,11.73
2019-02-17T03:45:29.215Z,12.17
2019-02-17T03:48:01.546Z,12.43
2019-02-17T03:50:33.718Z,12.03
2019-02-17T03:53:06.225Z,12.27
2019-02-17T03:55:38.420Z,12.27
2019-02-17T03:58:11.112Z,11.33
2019-02-17T04:00:43.297Z,11.80
2019-02-17T04:03:15.719Z,11.17
2019-02-17T04:05:48.371Z,11.17
2019-02-17T04:08:20.506Z,11.03
2019-02-17T04:10:52.792Z,10.57
2019-02-17T04:13:24.920Z,10.23
2019-02-17T04:15:57.098Z,11.97
2019-02-17T04:18:29.240Z,11.23
2019-02-17T04:21:01.452Z,11.10
2019-02-17T04:23:33.936Z,11.03
2019-02-17T04:26:06.028Z,10.87
2019-02-17T04:28:38.228Z,11.33
2019-02-17T04:31:10.422Z,10.57
2019-02-17T04:33:42.948Z,10.63
2019-02-17T04:36:15.122Z,11.27
2019-02-17T04:41:23.841Z,10.87
2019-02-17T04:43:56.435Z,11.30
2019-02-17T04:46:28.502Z,11.30
2019-02-17T04:49:00.856Z,11.33
2019-02-17T04:51:33.138Z,11.47
2019-02-17T04:54:05.658Z,12.23
2019-02-17T04:56:38.262Z,11.67
2019-02-17T04:59:10.582Z,11.13
2019-02-17T05:01:42.850Z,11.03
2019-02-17T05:04:15.162Z,11.10
2019-02-17T05:06:47.401Z,10.83
2019-02-17T05:09:20.158Z,10.80
2019-02-17T05:11:52.570Z,10.53
2019-02-17T05:14:24.643Z,11.27
2019-02-17T05:16:56.861Z,10.70
2019-02-17T05:19:29.302Z,11.43
2019-02-17T05:22:01.687Z,11.03
2019-02-17T05:24:34.081Z,11.60
2019-02-17T05:27:06.408Z,11.20
2019-02-17T05:29:38.826Z,10.93
2019-02-17T05:32:11.293Z,11.87
2019-02-17T05:34:43.370Z,11.47
2019-02-17T05:37:15.582Z,10.80
2019-02-17T05:39:47.879Z,10.60
2019-02-17T05:42:20.178Z,12.03
2019-02-17T05:44:52.831Z,11.33
2019-02-17T05:47:25.337Z,11.57
2019-02-17T05:49:57.814Z,11.53
2019-02-17T05:52:30.162Z,11.03
2019-02-17T05:55:02.563Z,11.27
2019-02-17T05:57:34.802Z,11.47
2019-02-17T06:00:07.645Z,10.83
2019-02-17T06:02:39.913Z,11.30
2019-02-17T06:05:12.384Z,11.40
2019-02-17T06:07:44.683Z,11.53
2019-02-17T06:10:17.125Z,11.97
2019-02-17T06:12:49.374Z,11.27
2019-02-17T06:15:21.493Z,11.73
2019-02-17T06:17:53.725Z,12.63
2019-02-17T06:20:26.217Z,12.07
2019-02-17T06:22:58.412Z,10.63
2019-02-17T06:25:30.705Z,11.57
2019-02-17T06:28:03.057Z,12.93
2019-02-17T06:30:35.430Z,11.43
2019-02-17T06:33:07.661Z,11.30
2019-02-17T06:35:39.953Z,11.93
2019-02-17T06:38:12.281Z,11.73
2019-02-17T06:40:44.589Z,11.17
2019-02-17T06:43:17.239Z,11.90
2019-02-17T06:45:49.629Z,12.30
2019-02-17T06:48:23.977Z,12.90
2019-02-17T06:50:56.154Z,11.67
2019-02-17T06:53:28.888Z,11.97
2019-02-17T06:56:12.129Z,12.23
2019-02-17T06:58:44.324Z,11.13
2019-02-17T07:01:24.354Z,11.67
2019-02-17T07:03:50.708Z,12.03
2019-02-17T07:06:31.560Z,10.90
2019-02-17T07:09:05.203Z,12.00
2019-02-17T07:11:37.336Z,12.30
2019-02-17T07:14:09.437Z,11.73
2019-02-17T07:16:41.651Z,12.10
2019-02-17T07:19:14.356Z,11.73
2019-02-17T07:21:46.450Z,12.17
2019-02-17T07:24:18.826Z,12.20
2019-02-17T07:26:51.137Z,12.33
2019-02-17T07:29:23.483Z,12.17
2019-02-17T07:31:57.314Z,12.50
2019-02-17T07:34:29.752Z,11.80
2019-02-17T07:37:01.876Z,12.87
2019-02-17T07:39:34.121Z,14.03
2019-02-17T07:42:06.708Z,12.33
2019-02-17T07:44:40.502Z,13.57
2019-02-17T07:47:13.218Z,13.33
2019-02-17T07:49:45.612Z,13.20
2019-02-17T07:52:17.851Z,12.67
2019-02-17T07:54:50.162Z,12.13
2019-02-17T07:57:22.595Z,13.87
2019-02-17T07:59:54.993Z,13.83
2019-02-17T08:02:27.246Z,12.67
2019-02-17T08:04:59.683Z,12.10
2019-02-17T08:07:31.955Z,13.83
2019-02-17T08:10:04.447Z,12.23
2019-02-17T08:12:36.699Z,11.63
2019-02-17T08:15:09.001Z,13.00
2019-02-17T08:17:41.651Z,11.67
2019-02-17T08:20:13.956Z,12.57
2019-02-17T08:22:46.207Z,12.77
2019-02-17T08:25:21.917Z,12.50
2019-02-17T08:27:52.364Z,13.70
2019-02-17T08:30:24.608Z,12.67
2019-02-17T08:32:57.110Z,13.67
2019-02-17T08:35:29.560Z,13.33
2019-02-17T08:38:03.417Z,13.37
2019-02-17T08:40:35.724Z,13.10
2019-02-17T08:43:07.955Z,13.00
2019-02-17T08:45:40.121Z,13.10
2019-02-17T08:48:12.381Z,13.03
2019-02-17T08:50:45.255Z,12.60
2019-02-17T08:53:17.621Z,12.93
2019-02-17T08:55:49.700Z,12.33
2019-02-17T08:58:21.952Z,12.87
2019-02-17T09:00:54.773Z,13.07
2019-02-17T09:03:27.329Z,12.40
2019-02-17T09:06:00.129Z,13.27
2019-02-17T09:08:32.637Z,13.03
2019-02-17T09:11:05.063Z,12.33
2019-02-17T09:13:37.291Z,14.17
2019-02-17T09:16:09.731Z,14.23
2019-02-17T09:18:42.122Z,13.67
2019-02-17T09:21:14.855Z,12.83
2019-02-17T09:23:47.359Z,13.40
2019-02-17T09:26:19.502Z,13.57
2019-02-17T09:28:51.642Z,14.33
2019-02-17T09:31:24.051Z,13.20
2019-02-17T09:33:56.301Z,13.13
2019-02-17T09:36:28.984Z,13.20
2019-02-17T09:39:01.320Z,14.33
2019-02-17T09:41:33.425Z,14.17
2019-02-17T09:44:05.767Z,14.13
2019-02-17T09:46:38.068Z,15.23
2019-02-17T09:49:10.338Z,15.03
2019-02-17T09:51:42.664Z,14.07
2019-02-17T09:54:15.021Z,15.57
2019-02-17T09:56:48.020Z,16.07
2019-02-17T09:59:20.591Z,15.40
2019-02-17T10:01:52.954Z,16.13
2019-02-17T10:04:25.431Z,16.30
2019-02-17T10:06:57.729Z,17.20
2019-02-17T10:09:29.865Z,17.13
2019-02-17T10:12:02.206Z,16.77
2019-02-17T10:14:34.437Z,18.63
2019-02-17T10:17:06.599Z,18.87
2019-02-17T10:19:38.686Z,18.50
2019-02-17T10:22:11.264Z,18.87
2019-02-17T10:24:43.444Z,17.87
2019-02-17T10:27:15.839Z,18.67
2019-02-17T10:29:48.068Z,19.43
2019-02-17T10:32:22.826Z,19.93
2019-02-17T10:34:55.399Z,19.23
2019-02-17T10:37:27.671Z,20.63
2019-02-17T10:40:00.303Z,22.00
2019-02-17T10:42:32.480Z,20.83
2019-02-17T10:45:04.961Z,21.87
2019-02-17T10:47:37.784Z,21.27
2019-02-17T10:50:10.471Z,20.77
2019-02-17T10:52:42.805Z,19.63
2019-02-17T10:55:15.304Z,20.93
2019-02-17T10:57:48.004Z,20.30
2019-02-17T11:00:20.555Z,20.03
2019-02-17T11:02:53.153Z,19.80
2019-02-17T11:05:25.257Z,21.30
2019-02-17T11:07:57.590Z,19.73
2019-02-17T11:10:30.134Z,21.10
2019-02-17T11:13:02.639Z,20.07
2019-02-17T11:15:35.298Z,19.33
2019-02-17T11:18:07.966Z,20.33
2019-02-17T11:20:40.405Z,21.63
2019-02-17T11:23:12.871Z,30.87
2019-02-17T11:25:45.061Z,26.13
2019-02-17T11:28:17.266Z,24.47
2019-02-17T11:30:49.385Z,21.37
2019-02-17T11:33:22.154Z,21.07
2019-02-17T11:35:54.681Z,20.23
2019-02-17T11:38:27.208Z,20.57
2019-02-17T11:41:00.204Z,19.63
2019-02-17T11:43:32.767Z,19.70
2019-02-17T11:46:05.360Z,19.97
2019-02-17T11:48:37.905Z,18.27
2019-02-17T11:51:10.349Z,18.93
2019-02-17T11:53:43.186Z,19.40
2019-02-17T11:56:16.028Z,19.13
2019-02-17T11:58:48.533Z,19.93
2019-02-17T12:01:20.843Z,18.80
2019-02-17T12:03:53.001Z,18.73
2019-02-17T12:06:25.326Z,17.97
2019-02-17T12:08:57.965Z,20.23
2019-02-17T12:11:30.682Z,25.30
2019-02-17T12:14:03.196Z,20.23
2019-02-17T12:16:37.247Z,23.70
2019-02-17T12:19:09.720Z,22.93
2019-02-17T12:22:04.979Z,20.40
2019-02-17T12:24:50.644Z,21.40
2019-02-17T12:27:31.347Z,18.30
2019-02-17T12:30:09.733Z,19.97
2019-02-17T12:32:42.178Z,19.53
2019-02-17T12:35:14.289Z,18.97
2019-02-17T12:37:47.435Z,19.20
2019-02-17T12:40:19.954Z,19.27
2019-02-17T12:42:52.467Z,18.80
2019-02-17T12:45:25.047Z,20.57
2019-02-17T12:47:58.543Z,20.00
2019-02-17T12:50:31.073Z,18.70
2019-02-17T12:53:03.370Z,18.30
2019-02-17T12:55:35.831Z,18.17
2019-02-17T12:58:08.132Z,19.47
2019-02-17T13:00:40.436Z,17.90
2019-02-17T13:03:12.937Z,18.00
2019-02-17T13:05:45.137Z,18.70
2019-02-17T13:08:17.360Z,19.77
2019-02-17T13:10:49.450Z,19.57
2019-02-17T13:13:22.426Z,17.93
2019-02-17T13:15:55.005Z,17.40
2019-02-17T13:18:27.633Z,18.67
2019-02-17T13:21:00.657Z,18.83
2019-02-17T13:23:33.110Z,17.80
2019-02-17T13:26:05.530Z,17.20
2019-02-17T13:28:37.976Z,18.23
2019-02-17T13:31:10.181Z,17.63
2019-02-17T13:33:43.025Z,19.20
2019-02-17T13:36:15.317Z,17.83
2019-02-17T13:38:47.718Z,19.43
2019-02-17T13:41:20.109Z,19.83
2019-02-17T13:43:52.357Z,21.80
2019-02-17T13:46:25.023Z,20.30
2019-02-17T13:48:57.494Z,20.60
2019-02-17T13:51:30.059Z,21.33
2019-02-17T13:54:02.436Z,20.50
2019-02-17T13:56:34.954Z,19.43
2019-02-17T13:59:07.261Z,19.63
2019-02-17T14:01:39.563Z,20.70
2019-02-17T14:04:11.850Z,19.80
2019-02-17T14:06:44.203Z,20.87
2019-02-17T14:09:16.867Z,18.57
2019-02-17T14:11:49.423Z,19.97
2019-02-17T14:14:21.648Z,20.60
2019-02-17T14:16:53.981Z,19.70
2019-02-17T14:19:26.340Z,19.83
2019-02-17T14:21:58.825Z,19.83
2019-02-17T14:24:31.209Z,19.53
2019-02-17T14:27:03.555Z,20.70
2019-02-17T14:29:35.728Z,18.50
2019-02-17T14:32:08.426Z,19.23
2019-02-17T14:34:41.048Z,21.13
2019-02-17T14:37:13.432Z,21.97
2019-02-17T14:39:45.785Z,21.23
2019-02-17T14:42:18.109Z,20.10
2019-02-17T14:44:50.671Z,20.00
2019-02-17T14:47:23.234Z,20.30
2019-02-17T14:49:55.424Z,19.93
2019-02-17T14:52:27.847Z,19.57
2019-02-17T14:55:00.313Z,20.63
2019-02-17T14:57:32.702Z,20.03
2019-02-17T15:00:05.328Z,19.57
2019-02-17T15:02:37.469Z,20.90
2019-02-17T15:05:10.193Z,20.37
2019-02-17T15:07:42.421Z,21.00
2019-02-17T15:10:14.808Z,18.57
2019-02-17T15:12:47.107Z,20.20
2019-02-17T15:15:19.456Z,19.10
2019-02-17T15:17:51.759Z,20.20
2019-02-17T15:20:24.070Z,21.00
2019-02-17T15:22:56.290Z,20.83
2019-02-17T15:25:28.610Z,19.90
2019-02-17T15:28:00.822Z,19.83
2019-02-17T15:30:32.940Z,20.20
2019-02-17T15:33:05.254Z,19.77
2019-02-17T15:35:37.696Z,19.27
2019-02-17T15:38:09.986Z,19.77
2019-02-17T15:40:42.200Z,20.07
2019-02-17T15:43:14.539Z,19.17
2019-02-17T15:45:46.745Z,19.03
2019-02-17T15:48:19.237Z,19.07
2019-02-17T15:50:51.461Z,20.27
2019-02-17T15:53:23.661Z,19.37
2019-02-17T15:55:55.998Z,19.37
2019-02-17T15:58:28.770Z,19.97
2019-02-17T16:01:01.446Z,19.83
2019-02-17T16:03:33.538Z,19.77
2019-02-17T16:06:05.976Z,19.50
2019-02-17T16:08:38.463Z,19.00
2019-02-17T16:11:10.846Z,19.93
2019-02-17T16:13:43.092Z,19.20
2019-02-17T16:16:15.246Z,19.30
2019-02-17T16:18:47.470Z,20.90
2019-02-17T16:21:19.729Z,19.30
2019-02-17T16:23:52.029Z,19.37
2019-02-17T16:26:24.421Z,19.43
2019-02-17T16:28:56.624Z,21.33
2019-02-17T16:31:29.082Z,21.57
2019-02-17T16:34:01.403Z,20.27
2019-02-17T16:36:33.901Z,21.37
2019-02-17T16:39:10.386Z,20.80
2019-02-17T16:41:42.948Z,19.83
2019-02-17T16:44:15.146Z,21.40
2019-02-17T16:46:47.643Z,20.67
2019-02-17T16:49:20.280Z,22.47
2019-02-17T16:51:52.594Z,22.53
2019-02-17T16:54:24.817Z,22.20
2019-02-17T16:56:57.379Z,22.17
2019-02-17T16:59:29.981Z,23.10
2019-02-17T17:02:02.354Z,22.27
2019-02-17T17:04:34.594Z,22.97
2019-02-17T17:07:06.969Z,23.63
2019-02-17T17:09:39.436Z,22.67
2019-02-17T17:12:11.522Z,22.30
2019-02-17T17:14:43.742Z,20.13
2019-02-17T17:17:16.137Z,20.67
2019-02-17T17:19:48.491Z,19.10
2019-02-17T17:22:21.634Z,19.20
2019-02-17T17:24:54.185Z,20.43
2019-02-17T17:27:26.547Z,18.70
2019-02-17T17:29:58.818Z,19.03
2019-02-17T17:32:31.324Z,18.87
2019-02-17T17:35:03.872Z,19.30
2019-02-17T17:37:36.348Z,19.07
2019-02-17T17:40:09.722Z,17.70
2019-02-17T17:42:43.338Z,17.40
2019-02-17T17:45:15.975Z,18.97
2019-02-17T17:47:48.646Z,17.97
2019-02-17T17:50:21.033Z,18.67
2019-02-17T17:52:53.542Z,18.10
2019-02-17T17:55:25.762Z,18.63
2019-02-17T17:57:58.326Z,18.13
2019-02-17T18:00:32.190Z,18.43
2019-02-17T18:03:04.695Z,17.97
2019-02-17T18:05:37.023Z,18.90
2019-02-17T18:08:09.695Z,18.43
2019-02-17T18:10:42.235Z,17.87
2019-02-17T18:13:14.605Z,19.10
2019-02-17T18:15:47.504Z,18.03
2019-02-17T18:18:20.001Z,17.73
2019-02-17T18:20:52.214Z,16.77
2019-02-17T18:23:24.574Z,17.37
2019-02-17T18:25:57.137Z,16.27
2019-02-17T18:28:29.507Z,16.60
2019-02-17T18:31:01.813Z,16.97
2019-02-17T18:33:34.047Z,16.97
2019-02-17T18:36:06.268Z,17.33
2019-02-17T18:38:38.498Z,17.23
2019-02-17T18:41:10.690Z,17.03
2019-02-17T18:43:43.046Z,17.17
2019-02-17T18:46:15.548Z,17.37
2019-02-17T18:48:47.884Z,16.23
2019-02-17T18:51:20.104Z,18.47
2019-02-17T18:53:52.431Z,18.70
2019-02-17T18:56:24.696Z,18.30
2019-02-17T18:58:57.274Z,16.53
2019-02-17T19:01:29.459Z,18.40
2019-02-17T19:04:01.953Z,17.23
2019-02-17T19:06:34.193Z,17.13
2019-02-17T19:09:07.407Z,17.00
2019-02-17T19:11:39.521Z,17.77
2019-02-17T19:14:12.016Z,17.13
2019-02-17T19:16:44.216Z,17.87
2019-02-17T19:19:16.579Z,17.33
2019-02-17T19:21:49.384Z,17.37
2019-02-17T19:24:21.606Z,17.50
2019-02-17T19:26:53.806Z,17.63
2019-02-17T19:29:26.079Z,18.43
2019-02-17T19:31:58.305Z,19.30
2019-02-17T19:34:30.979Z,20.13
2019-02-17T19:37:03.305Z,19.77
2019-02-17T19:39:35.595Z,18.97
2019-02-17T19:42:07.810Z,20.50
2019-02-17T19:44:40.065Z,19.20
2019-02-17T19:47:12.724Z,18.57
2019-02-17T19:49:45.328Z,20.10
2019-02-17T19:52:17.784Z,17.87
2019-02-17T19:54:49.913Z,17.93
2019-02-17T19:57:22.347Z,20.23
2019-02-17T19:59:54.588Z,19.27
2019-02-17T20:02:52.428Z,20.33
2019-02-17T20:05:27.336Z,19.07
2019-02-17T20:07:59.968Z,20.17
2019-02-17T20:10:32.873Z,19.90
2019-02-17T20:13:05.244Z,19.60
2019-02-17T20:15:37.560Z,19.13
2019-02-17T20:18:10.205Z,18.23
2019-02-17T20:20:42.785Z,17.50
2019-02-17T20:23:14.997Z,19.10
2019-02-17T20:25:47.336Z,18.33
2019-02-17T20:28:19.448Z,17.50
2019-02-17T20:30:51.720Z,18.03
2019-02-17T20:33:24.214Z,16.47
2019-02-17T20:36:02.881Z,17.13
2019-02-17T20:38:30.549Z,16.97
2019-02-17T20:41:02.845Z,17.07
2019-02-17T20:43:34.926Z,17.47
2019-02-17T20:46:07.501Z,18.60
2019-02-17T20:48:40.001Z,18.17
2019-02-17T20:51:12.274Z,17.07
2019-02-17T20:53:44.353Z,18.80
2019-02-17T20:56:16.969Z,29.07
2019-02-17T20:58:49.267Z,17.80
2019-02-17T21:01:21.844Z,18.27
2019-02-17T21:03:54.209Z,18.57
2019-02-17T21:06:26.696Z,18.90
2019-02-17T21:08:59.194Z,18.80
2019-02-17T21:11:31.439Z,18.70
2019-02-17T21:14:03.800Z,18.23
2019-02-17T21:16:36.101Z,18.43
2019-02-17T21:19:08.496Z,18.17
2019-02-17T21:21:40.844Z,19.30
2019-02-17T21:24:13.242Z,17.73
2019-02-17T21:26:45.663Z,18.10
2019-02-17T21:29:17.977Z,18.07
2019-02-17T21:31:50.516Z,19.67
2019-02-17T21:34:22.812Z,18.37
2019-02-17T21:36:55.391Z,18.80
2019-02-17T21:39:27.519Z,19.07
2019-02-17T21:42:01.764Z,18.47
2019-02-17T21:44:34.100Z,18.60
2019-02-17T21:47:06.357Z,18.83
2019-02-17T21:49:38.961Z,19.63
2019-02-17T21:52:11.296Z,17.87
2019-02-17T21:54:43.709Z,16.57
2019-02-17T21:57:16.197Z,17.77
2019-02-17T21:59:48.497Z,17.67
2019-02-17T22:02:21.233Z,17.87
2019-02-17T22:04:53.469Z,18.27
2019-02-17T22:07:25.768Z,18.07
2019-02-17T22:10:00.576Z,17.77
2019-02-17T22:12:32.320Z,18.43
2019-02-17T22:15:05.256Z,18.13
2019-02-17T22:17:38.075Z,18.07
2019-02-17T22:20:10.539Z,18.40
2019-02-17T22:22:42.849Z,18.20
2019-02-17T22:25:15.298Z,19.17
2019-02-17T22:27:47.713Z,18.50
2019-02-17T22:30:20.058Z,18.00
2019-02-17T22:32:52.346Z,18.87
2019-02-17T22:35:24.955Z,18.70
2019-02-17T22:37:57.110Z,18.50
2019-02-17T22:40:29.673Z,17.90
2019-02-17T22:43:02.259Z,18.00
2019-02-17T22:45:34.521Z,18.93
2019-02-17T22:48:06.964Z,18.00
2019-02-17T22:50:39.505Z,18.13
2019-02-17T22:53:11.839Z,18.70
2019-02-17T22:55:44.089Z,17.43
2019-02-17T22:58:16.182Z,16.53
2019-02-17T23:00:57.785Z,17.50
2019-02-17T23:03:30.716Z,18.10
2019-02-17T23:06:03.316Z,18.47
2019-02-17T23:08:35.481Z,17.60
2019-02-17T23:11:07.813Z,18.43
2019-02-17T23:13:40.124Z,18.40
2019-02-17T23:16:12.890Z,18.27
2019-02-17T23:18:45.053Z,16.93
2019-02-17T23:21:17.601Z,18.53
2019-02-17T23:23:50.232Z,18.77
2019-02-17T23:26:22.681Z,18.07
2019-02-17T23:28:54.917Z,18.23
2019-02-17T23:31:27.275Z,17.20
2019-02-17T23:33:59.891Z,18.17
2019-02-17T23:36:32.285Z,17.80
2019-02-17T23:39:04.978Z,19.00
2019-02-17T23:41:37.317Z,18.47
2019-02-17T23:44:09.513Z,17.57
2019-02-17T23:46:41.877Z,18.27
2019-02-17T23:49:14.006Z,17.53
2019-02-17T23:51:46.278Z,18.77
2019-02-17T23:54:18.374Z,18.83
2019-02-17T23:56:51.237Z,18.80
2019-02-17T23:59:23.491Z,19.13
